Time;durP1;ratioP1;P1;durP2;ratioP2;P2;SDS_P1;SDS_P2;PMS_P1;PMS_P2;Temp;Humidity;BMP_temperature;BMP_pressure;BME280_temperature;BME280_humidity;BME280_pressure;Samples;Min_cycle;Max_cycle;Signal;HPM_P1;HPM_P2
2021/05/16 00:01:31;;;;;;;12.07;2.30;;;12.40;91.40;;;11.54;83.51;99103.34;5028297;28;20398;-77
2021/05/16 00:04:10;;;;;;;11.80;2.53;;;12.40;91.50;;;11.54;83.51;99102.50;5010024;28;20468;-77
2021/05/16 00:06:49;;;;;;;8.30;2.22;;;12.50;91.70;;;11.54;83.42;99100.63;5040059;28;20567;-77
2021/05/16 00:09:24;;;;;;;15.38;2.70;;;12.40;91.60;;;11.53;83.67;99098.94;5048257;28;20056;-77
2021/05/16 00:12:00;;;;;;;11.00;2.78;;;12.50;91.80;;;11.53;83.55;99088.03;5047910;28;20041;-76
2021/05/16 00:14:38;;;;;;;9.85;2.35;;;12.50;91.70;;;11.52;83.46;99101.91;5049262;28;20053;-76
2021/05/16 00:17:16;;;;;;;11.20;2.30;;;12.50;91.60;;;11.55;83.74;99093.28;5051946;28;20416;-76
2021/05/16 00:19:54;;;;;;;11.73;2.55;;;12.50;91.60;;;11.54;83.94;99099.78;5051724;28;20044;-76
2021/05/16 00:22:33;;;;;;;10.85;2.58;;;12.50;91.80;;;11.53;84.05;99089.94;5051439;28;20049;-76
2021/05/16 00:25:18;;;;;;;9.63;2.13;;;12.50;91.80;;;11.56;83.95;99084.03;5051227;28;20475;-76
2021/05/16 00:27:57;;;;;;;13.00;2.95;;;12.60;91.90;;;11.58;83.96;99092.00;5051544;28;20044;-76
2021/05/16 00:30:35;;;;;;;11.65;2.33;;;12.50;91.80;;;11.60;84.10;99084.44;5051473;28;20045;-76
2021/05/16 00:33:11;;;;;;;15.65;2.65;;;12.50;92.00;;;11.60;83.80;99087.97;5051066;28;20036;-76
2021/05/16 00:35:43;;;;;;;13.88;2.70;;;12.60;91.80;;;11.59;83.74;99086.31;5051341;28;20416;-76
2021/05/16 00:38:19;;;;;;;10.65;3.00;;;12.50;91.70;;;11.59;83.77;99088.19;5051370;28;20045;-76
2021/05/16 00:40:57;;;;;;;11.60;2.83;;;12.60;91.80;;;11.61;83.84;99089.63;5051290;28;20044;-75
2021/05/16 00:43:30;;;;;;;12.93;2.80;;;12.60;91.60;;;11.62;83.81;99085.84;5050882;28;20040;-76
2021/05/16 00:46:09;;;;;;;13.48;2.50;;;12.60;91.70;;;11.61;83.32;99081.47;5051308;28;20045;-76
2021/05/16 00:48:45;;;;;;;12.40;2.30;;;12.60;91.40;;;11.60;83.25;99090.72;5033080;28;20053;-76
2021/05/16 00:51:21;;;;;;;14.07;2.78;;;12.60;91.50;;;11.60;83.38;99095.34;5051101;28;20044;-76
2021/05/16 00:54:01;;;;;;;15.88;3.67;;;12.60;91.40;;;11.61;82.59;99092.34;5050736;28;20120;-76
2021/05/16 00:56:37;;;;;;;14.25;2.70;;;12.60;91.20;;;11.59;82.98;99089.03;5050784;28;20041;-77
2021/05/16 00:59:16;;;;;;;18.08;2.92;;;12.50;91.10;;;11.58;82.80;99095.56;5032924;28;20059;-76
2021/05/16 01:01:57;;;;;;;11.32;2.70;;;12.60;91.00;;;11.58;82.95;99092.00;5050428;28;20052;-76
2021/05/16 01:04:32;;;;;;;10.27;2.55;;;12.50;90.90;;;11.54;82.79;99091.63;5049497;28;20044;-76
2021/05/16 01:07:08;;;;;;;20.83;3.20;;;12.50;91.00;;;11.54;82.92;99095.16;5032816;28;20053;-76
2021/05/16 01:09:48;;;;;;;13.50;2.53;;;12.50;91.10;;;11.55;82.80;99093.28;5050733;28;20045;-76
2021/05/16 01:12:32;;;;;;;13.50;3.47;;;12.50;91.00;;;11.54;82.93;99089.72;5032484;28;20671;-76
2021/05/16 01:15:07;;;;;;;15.68;3.03;;;12.50;91.20;;;11.54;82.75;99097.06;5050464;28;20053;-77
2021/05/16 01:17:46;;;;;;;12.48;2.75;;;12.50;91.40;;;11.53;83.13;99090.75;5032577;28;20049;-77
2021/05/16 01:20:39;;;;;;;10.43;2.53;;;12.50;91.30;;;11.55;83.47;99096.00;5032623;28;20508;-76
2021/05/16 01:23:21;;;;;;;13.63;3.00;;;12.50;91.60;;;11.51;83.56;99092.06;5049792;28;20068;-77
2021/05/16 01:26:01;;;;;;;17.65;3.42;;;12.50;91.50;;;11.53;83.08;99098.94;5031319;28;20059;-76
2021/05/16 01:28:43;;;;;;;17.52;3.10;;;12.50;91.40;;;11.56;83.35;99097.66;5050156;28;20049;-77
2021/05/16 01:31:22;;;;;;;14.90;2.90;;;12.50;91.40;;;11.52;83.15;99093.75;5032268;28;20574;-77
2021/05/16 01:33:59;;;;;;;14.75;3.03;;;12.50;91.50;;;11.55;83.03;99096.00;5049891;28;20130;-77
2021/05/16 01:36:38;;;;;;;12.77;3.17;;;12.50;91.40;;;11.53;83.10;99098.09;5050170;28;20073;-76
2021/05/16 01:39:20;;;;;;;16.50;2.90;;;12.50;91.40;;;11.51;82.96;99098.34;5032199;28;20402;-77
2021/05/16 01:41:58;;;;;;;12.98;2.92;;;12.50;91.20;;;11.53;83.01;99095.38;5049964;28;20052;-76
2021/05/16 01:44:38;;;;;;;12.95;2.55;;;12.50;91.10;;;11.55;83.03;99098.72;5031950;28;20143;-76
2021/05/16 01:47:13;;;;;;;16.98;3.13;;;12.50;91.10;;;11.55;82.85;99104.16;5050134;28;20048;-77
2021/05/16 01:49:55;;;;;;;16.05;2.83;;;12.50;91.20;;;11.54;82.93;99097.06;5050008;28;20076;-76
2021/05/16 01:52:33;;;;;;;16.85;2.90;;;12.50;91.20;;;11.54;83.02;99097.88;5049662;28;20049;-77
2021/05/16 01:55:11;;;;;;;18.17;2.53;;;12.50;91.30;;;11.54;83.16;99105.25;5049812;28;20485;-76
2021/05/16 01:57:48;;;;;;;18.98;2.78;;;12.50;91.20;;;11.54;82.93;99097.06;5049914;28;20048;-77
2021/05/16 02:00:35;;;;;;;13.73;2.65;;;12.50;91.00;;;11.54;82.88;99094.34;5049830;28;20052;-76
2021/05/16 02:03:15;;;;;;;20.83;2.90;;;12.50;91.00;;;11.51;82.78;99092.06;5031427;28;20045;-77
2021/05/16 02:05:58;;;;;;;12.65;2.83;;;12.50;90.90;;;11.50;82.95;99098.59;5014901;28;20099;-76
2021/05/16 02:08:36;;;;;;;12.65;3.30;;;12.50;91.00;;;11.45;82.42;99101.13;5011786;28;20065;-76
2021/05/16 02:11:13;;;;;;;12.43;2.58;;;12.50;90.80;;;11.41;82.91;99092.59;5029401;28;20124;-77
2021/05/16 02:13:51;;;;;;;17.58;3.35;;;12.40;90.80;;;11.40;82.78;99099.06;5011388;28;20072;-77
2021/05/16 02:16:26;;;;;;;15.35;3.17;;;12.40;90.70;;;11.39;82.81;99104.78;5029654;28;20048;-76
2021/05/16 02:19:10;;;;;;;14.23;2.67;;;12.40;90.80;;;11.36;82.64;99100.59;5011813;28;20060;-76
2021/05/16 02:21:45;;;;;;;11.10;2.38;;;12.40;90.60;;;11.35;82.50;99093.50;5011246;28;20041;-76
2021/05/16 02:24:23;;;;;;;16.13;2.83;;;12.40;90.50;;;11.34;82.50;99089.91;5048754;22;20048;-77
2021/05/16 02:27:09;;;;;;;14.45;2.50;;;12.40;90.70;;;11.34;82.57;99092.63;5049163;28;20048;-77
2021/05/16 02:29:57;;;;;;;15.88;2.80;;;12.40;90.50;;;11.33;82.34;99095.59;5031077;28;20052;-77
2021/05/16 02:32:30;;;;;;;14.05;2.45;;;12.40;90.50;;;11.30;82.37;99087.88;5048869;28;20662;-77
2021/05/16 02:35:07;;;;;;;10.38;2.15;;;12.30;90.40;;;11.30;82.13;99093.31;5030931;28;20052;-77
2021/05/16 02:37:53;;;;;;;15.25;2.90;;;12.30;90.50;;;11.26;82.49;99089.38;5048817;28;20052;-78
2021/05/16 02:40:29;;;;;;;8.77;2.28;;;12.20;90.50;;;11.27;82.53;99091.03;5028160;28;20063;-77
2021/05/16 02:43:14;;;;;;;12.40;2.70;;;12.20;90.60;;;11.23;82.77;99096.13;5030547;28;20048;-77
2021/05/16 02:45:53;;;;;;;13.80;2.53;;;12.20;90.60;;;11.25;82.93;99093.16;5030767;28;20060;-77
2021/05/16 02:48:33;;;;;;;12.53;2.23;;;12.30;90.80;;;11.25;82.75;99096.72;5048800;28;20139;-77
2021/05/16 02:51:12;;;;;;;11.18;2.42;;;12.30;90.90;;;11.27;82.70;99089.16;5030902;28;20764;-77
2021/05/16 02:53:54;;;;;;;11.27;2.47;;;12.20;90.60;;;11.26;82.43;99092.94;5030397;28;20048;-77
2021/05/16 02:56:30;;;;;;;13.82;3.38;;;12.20;90.70;;;11.27;82.40;99091.88;5011607;28;20049;-77
2021/05/16 02:59:10;;;;;;;20.25;3.50;;;12.30;90.70;;;11.27;82.46;99097.34;5010928;28;20053;-77
2021/05/16 03:01:45;;;;;;;14.25;2.88;;;12.20;90.60;;;11.27;82.43;99089.16;5010838;28;20045;-77
2021/05/16 03:04:29;;;;;;;20.00;3.28;;;12.20;90.60;;;11.25;82.24;99094.00;5010857;28;20045;-77
2021/05/16 03:07:05;;;;;;;16.88;2.78;;;12.20;90.60;;;11.23;82.36;99098.84;5010828;28;20140;-78
2021/05/16 03:09:43;;;;;;;15.73;3.28;;;12.20;90.70;;;11.24;82.55;99095.06;5010765;28;20055;-78
2021/05/16 03:12:22;;;;;;;11.48;2.70;;;12.20;90.70;;;11.24;82.18;99089.59;5028361;28;20053;-77
2021/05/16 03:15:02;;;;;;;12.85;2.65;;;12.20;90.50;;;11.27;82.33;99088.31;5010571;28;20046;-78
2021/05/16 03:17:37;;;;;;;12.20;2.70;;;12.20;90.50;;;11.25;82.28;99098.59;5010721;28;20057;-78
2021/05/16 03:20:15;;;;;;;18.10;4.05;;;12.20;90.80;;;11.26;82.50;99098.38;5010502;28;20053;-78
2021/05/16 03:22:54;;;;;;;15.95;2.85;;;12.20;90.80;;;11.25;82.18;99093.16;5028186;28;20045;-78
2021/05/16 03:25:35;;;;;;;18.70;2.55;;;12.20;90.70;;;11.24;81.58;99099.66;5010410;28;20488;-78
2021/05/16 03:28:11;;;;;;;16.73;2.60;;;12.20;90.30;;;11.23;81.79;99096.13;5028664;28;20083;-77
2021/05/16 03:30:47;;;;;;;13.30;2.80;;;12.20;90.20;;;11.24;81.90;99096.94;5028483;28;20084;-78
2021/05/16 03:33:26;;;;;;;14.05;2.65;;;12.20;90.30;;;11.23;82.25;99095.25;5028286;28;20417;-77
2021/05/16 03:36:01;;;;;;;14.85;2.83;;;12.20;90.40;;;11.23;81.90;99095.25;5028618;28;20049;-78
2021/05/16 03:38:40;;;;;;;18.38;4.07;;;12.20;90.20;;;11.22;81.67;99091.72;5010443;28;20052;-77
2021/05/16 03:41:18;;;;;;;15.63;3.00;;;12.20;90.10;;;11.21;81.70;99091.94;5028471;28;20106;-78
2021/05/16 03:43:56;;;;;;;14.35;2.80;;;12.20;90.20;;;11.22;81.91;99099.06;5028069;28;20115;-76
2021/05/16 03:46:32;;;;;;;14.20;2.67;;;12.10;90.20;;;11.21;81.55;99097.38;5028476;28;20049;-77
2021/05/16 03:49:07;;;;;;;17.30;3.13;;;12.10;90.30;;;11.19;81.25;99097.59;5028936;28;20053;-77
2021/05/16 03:51:45;;;;;;;14.00;2.53;;;12.10;90.00;;;11.16;81.48;99106.25;5032147;28;20421;-77
2021/05/16 03:54:21;;;;;;;14.55;2.65;;;12.10;90.00;;;11.13;81.58;99103.94;5031968;28;20053;-77
2021/05/16 03:56:58;;;;;;;12.80;2.20;;;12.10;90.00;;;11.10;81.52;99112.53;5032054;28;20100;-77
2021/05/16 03:59:34;;;;;;;15.02;2.70;;;12.10;90.00;;;11.10;81.62;99107.09;5032220;28;20049;-77
2021/05/16 04:02:13;;;;;;;17.00;2.75;;;12.00;90.00;;;11.06;81.55;99114.91;5013848;28;20046;-77
2021/05/16 04:04:51;;;;;;;13.90;2.60;;;12.00;90.00;;;11.02;81.52;99110.13;5031944;28;20048;-77
2021/05/16 04:07:30;;;;;;;12.57;2.53;;;12.00;90.00;;;10.97;81.83;99110.78;5032042;28;20041;-77
2021/05/16 04:10:03;;;;;;;11.80;2.40;;;12.00;90.00;;;11.00;81.93;99121.22;5013926;28;20064;-77
2021/05/16 04:12:42;;;;;;;15.57;3.00;;;11.90;90.10;;;11.00;81.94;99099.44;5031677;28;20042;-76
2021/05/16 04:15:17;;;;;;;16.98;3.03;;;12.00;90.30;;;10.99;81.57;99121.47;5031753;28;20049;-77
2021/05/16 04:18:00;;;;;;;15.18;2.70;;;12.00;90.00;;;11.01;82.06;99112.00;5031793;28;20049;-76
2021/05/16 04:20:36;;;;;;;13.55;2.65;;;12.00;90.20;;;11.03;81.89;99120.78;5031674;28;20776;-76
2021/05/16 04:23:11;;;;;;;15.35;2.75;;;12.00;90.20;;;11.06;82.50;99122.22;5031523;28;20815;-76
2021/05/16 04:25:49;;;;;;;12.05;2.80;;;12.00;90.30;;;11.05;81.94;99120.56;5031484;28;20128;-80
2021/05/16 04:28:21;;;;;;;11.98;2.67;;;12.00;90.20;;;11.05;81.68;99115.13;5031604;28;20049;-79
2021/05/16 04:30:59;;;;;;;10.27;2.40;;;12.10;90.20;;;11.07;81.79;99126.63;5031306;28;20410;-79
2021/05/16 04:33:38;;;;;;;15.38;2.85;;;12.00;90.00;;;11.08;81.73;99125.56;5013029;28;20445;-77
2021/05/16 04:36:17;;;;;;;16.38;2.42;;;12.10;90.20;;;11.09;81.81;99121.78;5013374;28;20103;-76
2021/05/16 04:38:58;;;;;;;14.70;2.63;;;12.10;90.40;;;11.12;81.94;99124.09;5031491;28;20058;-76
2021/05/16 04:41:36;;;;;;;14.02;2.90;;;12.10;90.30;;;11.13;81.68;99126.56;5031408;28;20061;-76
2021/05/16 04:44:12;;;;;;;11.25;2.78;;;12.10;90.30;;;11.15;81.43;99123.63;5031249;28;20049;-75
2021/05/16 04:46:50;;;;;;;14.93;2.88;;;12.10;90.20;;;11.19;81.90;99124.84;5031338;28;20041;-75
2021/05/16 04:49:26;;;;;;;12.63;3.05;;;12.10;90.40;;;11.25;82.35;99129.41;5013379;28;20053;-75
2021/05/16 04:52:06;;;;;;;14.10;2.85;;;12.20;90.50;;;11.29;82.29;99122.44;5030840;28;20041;-75
2021/05/16 04:54:44;;;;;;;13.88;2.65;;;12.30;90.60;;;11.33;81.91;99118.22;5031101;28;20049;-76
2021/05/16 04:57:22;;;;;;;11.05;2.65;;;12.30;90.50;;;11.36;82.02;99125.09;5013262;28;20054;-76
2021/05/16 04:59:55;;;;;;;11.25;2.90;;;12.30;90.30;;;11.41;81.65;99119.00;5030861;28;20060;-75
2021/05/16 05:02:33;;;;;;;15.30;2.85;;;12.30;90.20;;;11.42;81.92;99121.47;5030679;28;20045;-75
2021/05/16 05:05:14;;;;;;;12.38;3.22;;;12.40;90.30;;;11.45;81.67;99129.22;5030707;28;20046;-75
2021/05/16 05:07:46;;;;;;;14.20;3.22;;;12.40;90.20;;;11.50;81.90;99128.56;5030749;28;20103;-76
2021/05/16 05:10:27;;;;;;;17.13;3.13;;;12.40;90.20;;;11.49;82.04;99122.25;5030469;28;20049;-75
2021/05/16 05:13:02;;;;;;;13.88;2.80;;;12.50;90.40;;;11.54;82.04;99130.59;5012535;28;20426;-75
2021/05/16 05:15:37;;;;;;;9.88;3.25;;;12.50;90.30;;;11.57;82.25;99140.19;5030690;28;20049;-75
2021/05/16 05:18:18;;;;;;;11.10;2.72;;;12.50;90.50;;;11.60;82.09;99134.31;5030729;28;20041;-76
2021/05/16 05:20:54;;;;;;;12.23;3.33;;;12.60;90.50;;;11.64;82.06;99138.25;5030529;28;20422;-75
2021/05/16 05:23:32;;;;;;;14.85;3.17;;;12.60;90.30;;;11.65;82.22;99136.34;5030448;28;20071;-76
2021/05/16 05:26:10;;;;;;;13.38;3.60;;;12.70;90.40;;;11.65;81.92;99137.19;5030466;28;20045;-75
2021/05/16 05:28:48;;;;;;;14.15;3.03;;;12.70;90.20;;;11.65;82.05;99137.19;5030521;28;20041;-76
2021/05/16 05:31:23;;;;;;;13.10;3.00;;;12.70;90.40;;;11.66;83.02;99144.28;5030206;28;20046;-75
2021/05/16 05:34:02;;;;;;;15.77;3.13;;;12.70;90.90;;;11.67;83.06;99134.22;5030144;28;20045;-75
2021/05/16 05:36:38;;;;;;;16.98;3.38;;;12.70;91.20;;;11.67;82.04;99145.97;5030346;28;20060;-79
2021/05/16 05:39:16;;;;;;;15.20;3.58;;;12.70;90.50;;;11.67;82.40;99140.53;5030287;28;20076;-76
2021/05/16 05:41:54;;;;;;;13.55;3.72;;;12.70;90.50;;;11.71;82.45;99140.91;5029722;28;20056;-76
2021/05/16 05:44:29;;;;;;;13.75;3.55;;;12.70;90.80;;;11.75;82.35;99136.66;5030096;28;20553;-76
2021/05/16 05:47:07;;;;;;;14.10;3.28;;;12.70;90.80;;;11.78;82.71;99129.91;5029838;28;20045;-75
2021/05/16 05:49:45;;;;;;;14.40;3.42;;;12.80;90.70;;;11.81;83.16;99137.66;5012131;28;20060;-75
2021/05/16 05:52:28;;;;;;;18.08;3.40;;;12.80;90.90;;;11.84;82.88;99134.47;5029681;28;20589;-75
2021/05/16 05:55:06;;;;;;;15.73;3.63;;;12.80;90.80;;;11.87;83.44;99134.84;5030022;28;20045;-76
2021/05/16 05:57:41;;;;;;;14.18;3.28;;;12.90;90.80;;;11.92;83.42;99128.75;5012192;28;20508;-75
2021/05/16 06:00:18;;;;;;;13.93;3.20;;;12.90;91.00;;;11.93;83.20;99133.94;5032428;28;20425;-75
2021/05/16 06:02:56;;;;;;;15.23;3.20;;;13.00;90.60;;;11.96;83.71;99137.31;5029715;28;20052;-75
2021/05/16 06:05:35;;;;;;;12.93;3.20;;;13.00;91.00;;;11.96;83.71;99150.94;5029843;28;20057;-75
2021/05/16 06:08:11;;;;;;;19.38;3.85;;;13.00;91.10;;;11.98;83.43;99149.66;5029948;28;20402;-75
2021/05/16 06:10:48;;;;;;;17.58;3.20;;;13.00;91.00;;;12.01;83.11;99156.53;5029738;28;20096;-75
2021/05/16 06:13:26;;;;;;;19.23;3.38;;;13.00;91.00;;;12.00;82.85;99152.97;5011078;28;20057;-75
2021/05/16 06:16:04;;;;;;;12.57;3.42;;;13.00;90.90;;;12.00;83.50;99155.69;5029662;28;20099;-75
2021/05/16 06:18:45;;;;;;;13.90;3.17;;;13.00;91.00;;;12.00;83.73;99150.25;5029484;28;20048;-75
2021/05/16 06:21:21;;;;;;;15.65;3.70;;;13.00;91.10;;;12.04;83.07;99148.72;5029358;28;20033;-75
2021/05/16 06:24:06;;;;;;;16.63;3.72;;;13.10;90.90;;;12.09;83.55;99148.88;5028966;28;20041;-75
2021/05/16 06:26:46;;;;;;;16.25;3.63;;;13.10;90.90;;;12.08;82.84;99147.22;5011478;28;20092;-75
2021/05/16 06:29:25;;;;;;;23.15;4.00;;;13.10;90.70;;;12.16;83.04;99156.16;5029412;28;20052;-75
2021/05/16 06:32:03;;;;;;;15.57;3.22;;;13.20;90.60;;;12.19;82.98;99152.97;5029025;28;20045;-75
2021/05/16 06:34:40;;;;;;;16.27;4.22;;;13.20;90.70;;;12.19;82.96;99152.97;5029285;28;20422;-75
2021/05/16 06:37:16;;;;;;;20.33;3.97;;;13.30;90.80;;;12.20;82.99;99160.09;5029406;28;20045;-76
2021/05/16 06:39:55;;;;;;;19.52;3.78;;;13.20;90.50;;;12.18;82.70;99162.22;5029368;28;20045;-76
2021/05/16 06:42:33;;;;;;;15.77;3.38;;;13.30;90.30;;;12.19;82.75;99161.16;5011084;28;20749;-76
2021/05/16 06:45:10;;;;;;;19.17;3.47;;;13.30;90.30;;;12.21;82.79;99153.59;5013457;28;20049;-75
2021/05/16 06:47:46;;;;;;;14.00;3.17;;;13.30;90.30;;;12.22;82.87;99157.97;5029161;28;20337;-75
2021/05/16 06:50:22;;;;;;;16.60;3.90;;;13.30;90.40;;;12.23;82.62;99155.00;5028666;28;20049;-75
2021/05/16 06:52:56;;;;;;;15.30;3.38;;;13.30;90.20;;;12.25;83.01;99157.50;5028294;28;20065;-75
2021/05/16 06:55:33;;;;;;;18.08;3.40;;;13.40;90.40;;;12.26;82.73;99168.19;5027655;28;20773;-75
2021/05/16 06:58:08;;;;;;;19.35;3.20;;;13.40;90.20;;;12.26;82.88;99160.00;5032301;28;20056;-75
2021/05/16 07:00:46;;;;;;;18.52;3.78;;;13.40;90.30;;;12.26;82.70;99164.63;5028546;28;20076;-75
2021/05/16 07:03:19;;;;;;;18.83;3.20;;;13.40;90.10;;;12.31;82.81;99160.13;5037474;28;20056;-75
2021/05/16 07:05:57;;;;;;;16.15;4.32;;;13.40;90.00;;;12.31;82.85;99156.59;5010777;28;20494;-75
2021/05/16 07:08:35;;;;;;;16.92;3.50;;;13.40;90.10;;;12.32;82.81;99161.00;5030222;28;20038;-76
2021/05/16 07:11:12;;;;;;;17.50;3.92;;;13.50;90.10;;;12.36;83.20;99164.09;5040156;28;20040;-75
2021/05/16 07:13:50;;;;;;;15.48;3.40;;;13.50;90.20;;;12.39;83.42;99161.72;5036191;28;20052;-76
2021/05/16 07:16:25;;;;;;;19.33;4.30;;;13.60;90.40;;;12.44;83.03;99161.03;5047285;28;20069;-75
2021/05/16 07:19:03;;;;;;;16.70;3.42;;;13.60;89.90;;;12.47;83.05;99164.16;5038962;28;20044;-75
2021/05/16 07:21:41;;;;;;;15.02;3.20;;;13.60;89.50;;;12.50;82.17;99166.41;5035022;28;20040;-75
2021/05/16 07:24:17;;;;;;;14.23;3.45;;;13.70;89.70;;;12.52;82.64;99164.28;5029691;28;20045;-75
2021/05/16 07:26:56;;;;;;;15.13;3.30;;;13.70;89.90;;;12.49;82.06;99170.22;5032446;28;20042;-75
2021/05/16 07:29:32;;;;;;;16.08;4.13;;;13.70;89.30;;;12.50;82.50;99180.03;5032708;28;20046;-78
2021/05/16 07:32:10;;;;;;;16.42;3.75;;;13.70;89.50;;;12.50;82.62;99177.31;5032059;28;20116;-76
2021/05/16 07:34:51;;;;;;;15.27;3.85;;;13.70;89.60;;;12.51;82.76;99175.44;5032270;28;20049;-77
2021/05/16 07:37:29;;;;;;;15.32;4.45;;;13.60;89.60;;;12.54;83.19;99179.59;5041060;28;20037;-76
2021/05/16 07:40:05;;;;;;;18.90;4.82;;;13.70;90.00;;;12.53;82.85;99178.78;5029521;28;20140;-76
2021/05/16 07:42:44;;;;;;;18.48;4.28;;;13.70;89.90;;;12.54;82.44;99174.13;5031558;28;20045;-76
2021/05/16 07:45:21;;;;;;;13.25;3.92;;;13.70;89.70;;;12.55;83.66;99182.09;5032687;28;20045;-76
2021/05/16 07:47:58;;;;;;;18.90;4.00;;;13.70;90.00;;;12.56;83.00;99182.91;5032782;28;20045;-76
2021/05/16 07:50:36;;;;;;;20.38;4.65;;;13.70;90.00;;;12.52;82.35;99186.09;5034567;28;20095;-76
2021/05/16 07:53:14;;;;;;;14.57;3.80;;;13.70;89.40;;;12.56;82.43;99180.19;5032446;28;20053;-76
2021/05/16 07:55:53;;;;;;;16.45;4.68;;;13.70;89.60;;;12.56;82.29;99180.19;5014566;28;20103;-75
2021/05/16 07:58:32;;;;;;;16.00;4.18;;;13.70;89.40;;;12.54;82.07;99179.59;5039198;28;20072;-76
2021/05/16 08:01:10;;;;;;;18.80;4.22;;;13.70;89.20;;;12.53;81.94;99181.50;5052134;28;20041;-75
2021/05/16 08:03:48;;;;;;;14.48;4.15;;;13.70;89.30;;;12.55;82.26;99184.00;5035804;28;20069;-76
2021/05/16 08:06:26;;;;;;;15.40;4.05;;;13.70;89.50;;;12.51;82.10;99184.44;5031631;28;20037;-76
2021/05/16 08:09:03;;;;;;;21.48;3.75;;;13.70;89.50;;;12.51;82.55;99184.44;5032273;28;20045;-76
2021/05/16 08:11:41;;;;;;;16.83;3.92;;;13.70;89.70;;;12.55;81.76;99182.09;5031848;28;20053;-76
2021/05/16 08:14:17;;;;;;;22.27;4.07;;;13.70;89.40;;;12.66;84.61;99177.72;5032105;28;20103;-76
2021/05/16 08:16:55;;;;;;;19.98;4.30;;;13.80;90.70;;;12.74;83.95;99171.97;5032217;28;20053;-76
2021/05/16 08:19:30;;;;;;;19.85;4.18;;;13.90;90.20;;;12.81;83.75;99178.19;5033342;28;20069;-76
2021/05/16 08:22:10;;;;;;;19.35;4.60;;;14.10;90.10;;;12.84;83.15;99177.69;5038672;28;20045;-76
2021/05/16 08:24:49;;;;;;;15.93;4.25;;;14.10;89.50;;;12.89;83.42;99177.84;5044192;23;20075;-78
2021/05/16 08:27:27;;;;;;;19.63;4.65;;;14.20;89.20;;;12.89;82.75;99172.38;5031294;28;20045;-77
2021/05/16 08:30:07;;;;;;;15.90;3.72;;;14.20;88.80;;;12.89;83.05;99174.28;5013648;28;20536;-77
2021/05/16 08:32:47;;;;;;;12.45;3.47;;;14.20;88.80;;;12.81;81.48;99178.19;5031329;28;20042;-77
2021/05/16 08:35:20;;;;;;;17.40;3.47;;;14.20;87.60;;;12.84;82.14;99174.97;5031249;28;20037;-78
2021/05/16 08:37:56;;;;;;;23.30;4.13;;;14.10;88.30;;;12.81;82.30;99177.31;5031915;28;20295;-78
2021/05/16 08:40:34;;;;;;;15.02;3.00;;;14.10;88.50;;;12.83;81.98;99176.03;5031256;28;20045;-77
2021/05/16 08:43:13;;;;;;;18.25;3.70;;;14.20;88.20;;;12.82;82.14;99182.56;5029896;28;20135;-77
2021/05/16 08:45:46;;;;;;;16.80;3.38;;;14.20;88.00;;;12.85;82.60;99173.91;5031380;28;20045;-77
2021/05/16 08:48:29;;;;;;;15.05;3.05;;;14.20;88.40;;;12.88;83.16;99176.16;5031601;28;20049;-77
2021/05/16 08:51:08;;;;;;;12.93;3.15;;;14.20;88.90;;;12.86;81.86;99170.09;5031375;28;20042;-77
2021/05/16 08:53:47;;;;;;;15.60;3.13;;;14.10;88.40;;;12.87;82.79;99165.47;5031379;28;20729;-78
2021/05/16 08:56:25;;;;;;;17.05;3.70;;;14.20;88.70;;;12.91;82.67;99166.69;5031063;28;20048;-77
2021/05/16 08:58:58;;;;;;;17.48;4.15;;;14.10;88.90;;;12.88;81.94;99178.06;5030044;28;20045;-77
2021/05/16 09:01:47;;;;;;;15.82;2.70;;;14.10;88.60;;;12.87;81.75;99190.03;5013402;28;20096;-77
2021/05/16 09:04:34;;;;;;;9.68;3.00;;;14.10;88.50;;;12.84;83.11;99183.16;5031325;28;20042;-77
2021/05/16 09:07:16;;;;;;;13.75;2.80;;;14.10;88.90;;;12.82;83.14;99185.28;5013376;28;20060;-77
2021/05/16 09:09:54;;;;;;;13.88;3.13;;;14.10;89.10;;;12.82;83.69;99179.81;5030994;28;20425;-77
2021/05/16 09:12:34;;;;;;;10.15;2.72;;;14.10;89.50;;;12.83;84.09;99176.03;5030594;28;20045;-78
2021/05/16 09:15:13;;;;;;;12.15;2.85;;;14.10;89.90;;;12.84;84.06;99177.69;5009547;28;20085;-77
2021/05/16 09:17:52;;;;;;;11.50;2.70;;;14.10;90.20;;;12.82;85.13;99179.81;5011089;28;20042;-78
2021/05/16 09:20:30;;;;;;;16.73;3.20;;;14.10;90.40;;;12.85;85.35;99176.63;5011144;28;20080;-78
2021/05/16 09:23:10;;;;;;;13.80;2.50;;;14.10;90.20;;;12.88;85.72;99183.53;5010926;28;20041;-78
2021/05/16 09:25:48;;;;;;;12.48;2.72;;;14.20;90.60;;;12.90;86.01;99175.94;5016810;28;20041;-78
2021/05/16 09:28:24;;;;;;;12.88;3.33;;;14.20;90.80;;;12.97;89.07;99171.22;5012762;28;20475;-78
2021/05/16 09:31:01;;;;;;;13.32;3.15;;;14.30;92.80;;;13.07;89.30;99162.44;5030551;28;20126;-77
2021/05/16 09:33:40;;;;;;;13.40;2.90;;;14.50;94.10;;;13.14;89.37;99165.91;5030570;28;20053;-77
2021/05/16 09:36:19;;;;;;;13.98;3.22;;;14.50;93.70;;;13.16;87.49;99166.50;5030735;28;20048;-77
2021/05/16 09:38:54;;;;;;;14.90;3.33;;;14.60;92.10;;;13.21;88.01;99171.25;5021153;28;20042;-78
2021/05/16 09:41:32;;;;;;;10.70;3.45;;;14.70;92.30;;;13.23;87.02;99161.78;5011974;28;20042;-77
2021/05/16 09:44:30;;;;;;;11.68;3.05;;;14.70;91.40;;;13.29;88.11;99152.63;5010660;28;20049;-78
2021/05/16 09:47:27;;;;;;;9.10;2.45;;;14.80;91.50;;;13.37;87.12;99150.66;5014280;28;20050;-77
2021/05/16 09:50:07;;;;;;;15.40;2.63;;;14.90;91.30;;;13.37;84.33;99156.13;5029183;28;20049;-78
2021/05/16 09:53:02;;;;;;;13.47;3.37;;;14.90;89.30;;;13.35;84.14;99150.06;5018784;28;20041;-78
2021/05/16 09:55:40;;;;;;;13.13;2.40;;;14.90;89.10;;;13.34;83.96;99149.19;5029535;28;20110;-77
2021/05/16 09:58:15;;;;;;;13.32;3.53;;;14.80;88.50;;;13.37;83.74;99154.19;5029419;28;20045;-77
2021/05/16 10:00:54;;;;;;;16.15;4.03;;;14.80;88.70;;;13.38;84.45;99144.91;5029826;28;20183;-78
2021/05/16 10:03:30;;;;;;;11.75;2.67;;;14.80;89.20;;;13.40;84.05;99152.88;5029804;28;20041;-77
2021/05/16 10:06:10;;;;;;;9.88;2.67;;;14.80;88.80;;;13.36;81.14;99146.22;5030076;28;20056;-78
2021/05/16 10:08:47;;;;;;;13.35;2.75;;;14.80;86.50;;;13.36;80.43;99146.22;5030045;28;20053;-77
2021/05/16 10:11:29;;;;;;;12.68;2.70;;;14.80;86.40;;;13.41;81.78;99143.63;5030003;28;20502;-77
2021/05/16 10:14:15;;;;;;;20.50;4.78;;;14.80;87.10;;;13.49;81.89;99140.53;5029602;28;20153;-77
2021/05/16 10:16:56;;;;;;;12.52;4.05;;;14.90;86.80;;;13.49;80.60;99146.81;5011673;28;20529;-77
2021/05/16 10:19:37;;;;;;;17.13;3.83;;;15.00;86.00;;;13.51;81.93;99146.59;5029857;28;20056;-77
2021/05/16 10:22:18;;;;;;;;;;;15.00;86.40;;;13.57;81.30;99142.06;5029951;28;20052;-77
2021/05/16 10:24:54;;;;;;;13.20;2.92;;;15.10;86.40;;;13.64;81.57;99135.41;5029453;28;19921;-77
2021/05/16 10:27:38;;;;;;;12.85;3.10;;;15.10;86.70;;;13.70;80.37;99139.09;5029656;28;20045;-77
2021/05/16 10:30:20;;;;;;;12.05;2.25;;;15.20;86.10;;;13.76;79.19;99129.13;5029443;28;20045;-77
2021/05/16 10:32:53;;;;;;;8.38;2.05;;;15.20;84.70;;;13.85;76.92;99123.03;5028743;28;20100;-77
2021/05/16 10:35:49;;;;;;;9.18;2.10;;;15.30;83.40;;;13.93;79.74;99130.03;5029471;28;20831;-77
2021/05/16 10:38:42;;;;;;;11.02;1.95;;;15.40;84.80;;;13.89;77.34;99121.47;5023553;28;20060;-77
2021/05/16 10:41:25;;;;;;;;;;;15.40;82.70;;;13.83;73.37;99132.56;5008739;28;20079;-77
2021/05/16 10:44:34;;;;;;;11.52;2.33;;;15.40;80.20;;;13.75;75.54;99149.34;5009433;28;19929;-78
2021/05/16 10:47:12;;;;;;;11.82;2.28;;;15.30;82.30;;;13.68;73.58;99153.00;4992930;28;20070;-77
2021/05/16 10:49:58;;;;;;;8.88;1.63;;;15.20;80.30;;;13.60;74.00;99158.84;5024359;28;20041;-77
2021/05/16 10:52:40;;;;;;;6.47;1.35;;;15.10;81.20;;;13.41;73.95;99157.28;5011587;28;20065;-77
2021/05/16 10:55:32;;;;;;;;;;;15.00;80.80;;;13.33;75.71;99157.63;5029782;28;20053;-77
2021/05/16 10:58:16;;;;;;;6.45;1.77;;;14.80;81.70;;;13.25;77.26;99145.97;5011057;28;19929;-77
2021/05/16 11:01:03;;;;;;;7.63;1.63;;;14.70;83.00;;;13.24;77.72;99143.47;5029100;28;20041;-77